createdAt,value
2023-01-17T00:01:55.586Z,62.82
2023-01-17T00:04:40.783Z,62.76
2023-01-17T00:07:29.522Z,62.51
2023-01-17T00:09:58.259Z,62.53
2023-01-17T00:12:27.501Z,62.22
2023-01-17T00:14:55.972Z,62.17
2023-01-17T00:17:24.357Z,62.29
2023-01-17T00:20:09.684Z,62.15
2023-01-17T00:22:55.366Z,61.81
2023-01-17T00:25:43.710Z,62.36
2023-01-17T00:28:10.355Z,61.97
2023-01-17T00:30:38.487Z,62.75
2023-01-17T00:33:05.696Z,62.26
2023-01-17T00:35:33.444Z,62.59
2023-01-17T00:38:10.978Z,62.17
2023-01-17T00:40:39.560Z,62.05
2023-01-17T00:43:26.232Z,62.62
2023-01-17T00:46:12.161Z,62.43
2023-01-17T00:48:57.969Z,61.61
2023-01-17T00:51:44.719Z,62.08
2023-01-17T00:54:29.918Z,62.11
2023-01-17T00:57:15.708Z,61.94
2023-01-17T01:00:01.194Z,62.64
2023-01-17T01:02:47.163Z,62.74
2023-01-17T01:05:33.297Z,62.88
2023-01-17T01:08:19.121Z,61.87
2023-01-17T01:11:05.822Z,62.34
2023-01-17T01:13:52.123Z,62.15
2023-01-17T01:16:37.853Z,62.89
2023-01-17T01:19:24.216Z,62.46
2023-01-17T01:22:09.513Z,61.96
2023-01-17T01:24:54.758Z,61.90
2023-01-17T01:27:39.939Z,61.89
2023-01-17T01:30:25.689Z,62.22
2023-01-17T01:33:10.966Z,61.95
2023-01-17T01:35:40.430Z,62.47
2023-01-17T01:38:07.243Z,62.01
2023-01-17T01:40:33.941Z,62.36
2023-01-17T01:43:06.039Z,62.18
2023-01-17T01:45:33.007Z,62.38
2023-01-17T01:48:07.244Z,62.11
2023-01-17T01:50:36.829Z,62.77
2023-01-17T01:53:05.878Z,62.69
2023-01-17T01:55:39.453Z,62.93
2023-01-17T01:58:15.304Z,62.90
2023-01-17T02:00:42.468Z,63.29
2023-01-17T02:03:14.693Z,62.57
2023-01-17T02:05:43.711Z,63.33
2023-01-17T02:08:19.960Z,63.62
2023-01-17T02:10:47.713Z,63.71
2023-01-17T02:13:16.807Z,64.14
2023-01-17T02:15:58.719Z,63.93
2023-01-17T02:18:43.734Z,64.13
2023-01-17T02:21:13.261Z,64.41
2023-01-17T02:23:44.353Z,64.23
2023-01-17T02:26:19.900Z,64.09
2023-01-17T02:29:24.565Z,64.40
2023-01-17T02:32:05.193Z,64.13
2023-01-17T02:34:55.862Z,63.36
2023-01-17T02:37:45.796Z,63.76
2023-01-17T02:40:24.825Z,63.61
2023-01-17T02:42:58.800Z,64.11
2023-01-17T02:45:25.475Z,64.15
2023-01-17T02:47:52.248Z,64.43
2023-01-17T02:50:23.147Z,64.80
2023-01-17T02:52:55.688Z,64.87
2023-01-17T02:55:34.521Z,65.29
2023-01-17T02:58:19.484Z,65.90
2023-01-17T03:01:09.007Z,65.69
2023-01-17T03:03:54.168Z,65.68
2023-01-17T03:06:27.444Z,66.17
2023-01-17T03:08:54.643Z,66.04
2023-01-17T03:11:21.349Z,66.10
2023-01-17T03:13:48.078Z,65.98
2023-01-17T03:16:19.898Z,66.34
2023-01-17T03:18:46.829Z,66.13
2023-01-17T03:21:13.566Z,66.20
2023-01-17T03:23:43.117Z,66.13
2023-01-17T03:26:09.854Z,66.32
2023-01-17T03:28:36.607Z,66.50
2023-01-17T03:31:03.359Z,66.31
2023-01-17T03:33:30.309Z,66.35
2023-01-17T03:36:00.299Z,66.32
2023-01-17T03:38:32.184Z,66.35
2023-01-17T03:41:02.279Z,66.24
2023-01-17T03:43:29.001Z,66.06
2023-01-17T03:46:05.527Z,66.19
2023-01-17T03:48:32.497Z,66.19
2023-01-17T03:50:59.325Z,65.91
2023-01-17T03:53:26.125Z,66.08
2023-01-17T03:55:52.789Z,65.81
2023-01-17T03:58:20.181Z,66.10
2023-01-17T04:00:46.940Z,66.13
2023-01-17T04:03:15.846Z,66.20
2023-01-17T04:05:42.556Z,66.37
2023-01-17T04:08:09.350Z,66.38
2023-01-17T04:10:36.066Z,66.20
2023-01-17T04:13:02.759Z,66.32
2023-01-17T04:15:29.983Z,65.90
2023-01-17T04:17:57.067Z,65.19
2023-01-17T04:20:36.050Z,65.14
2023-01-17T04:23:03.005Z,65.39
2023-01-17T04:25:32.574Z,64.86
2023-01-17T04:28:01.209Z,64.85
2023-01-17T04:30:28.942Z,64.71
2023-01-17T04:32:56.038Z,64.59
2023-01-17T04:35:23.071Z,64.73
2023-01-17T04:37:50.108Z,64.72
2023-01-17T04:40:17.036Z,64.27
2023-01-17T04:42:45.341Z,64.42
2023-01-17T04:45:12.955Z,63.85
2023-01-17T04:47:39.881Z,63.88
2023-01-17T04:50:07.431Z,63.67
2023-01-17T04:52:34.134Z,63.68
2023-01-17T04:55:02.235Z,64.02
2023-01-17T04:57:29.028Z,64.31
2023-01-17T04:59:55.692Z,63.41
2023-01-17T05:02:22.428Z,64.19
2023-01-17T05:04:49.205Z,64.17
2023-01-17T05:07:15.879Z,63.84
2023-01-17T05:09:43.928Z,63.95
2023-01-17T05:12:10.939Z,64.39
2023-01-17T05:14:37.654Z,63.85
2023-01-17T05:17:04.318Z,63.62
2023-01-17T05:19:30.988Z,63.70
2023-01-17T05:22:04.345Z,64.22
2023-01-17T05:24:31.683Z,64.28
2023-01-17T05:27:03.304Z,63.69
2023-01-17T05:29:30.897Z,63.90
2023-01-17T05:31:57.913Z,63.98
2023-01-17T05:34:24.743Z,64.37
2023-01-17T05:36:51.748Z,64.21
2023-01-17T05:39:20.107Z,64.66
2023-01-17T05:41:46.758Z,64.38
2023-01-17T05:44:15.270Z,64.65
2023-01-17T05:46:42.447Z,64.72
2023-01-17T05:49:09.500Z,64.74
2023-01-17T05:51:37.937Z,64.72
2023-01-17T05:54:06.364Z,64.24
2023-01-17T05:56:33.942Z,64.53
2023-01-17T05:59:00.721Z,64.83
2023-01-17T06:01:27.670Z,64.59
2023-01-17T06:03:54.444Z,64.08
2023-01-17T06:06:21.815Z,64.50
2023-01-17T06:08:48.487Z,64.44
2023-01-17T06:11:15.260Z,64.31
2023-01-17T06:13:41.935Z,64.59
2023-01-17T06:16:08.777Z,64.41
2023-01-17T06:18:35.570Z,64.38
2023-01-17T06:21:02.422Z,64.53
2023-01-17T06:23:29.081Z,64.59
2023-01-17T06:25:55.774Z,64.85
2023-01-17T06:28:23.295Z,65.04
2023-01-17T06:30:50.164Z,65.27
2023-01-17T06:33:16.862Z,65.47
2023-01-17T06:35:50.969Z,65.42
2023-01-17T06:38:18.122Z,65.76
2023-01-17T06:40:44.768Z,66.02
2023-01-17T06:43:11.474Z,66.19
2023-01-17T06:45:38.155Z,66.41
2023-01-17T06:48:05.455Z,66.31
2023-01-17T06:50:33.551Z,66.34
2023-01-17T06:53:05.757Z,66.65
2023-01-17T06:55:36.215Z,66.42
2023-01-17T06:58:03.295Z,66.51
2023-01-17T07:00:40.366Z,66.78
2023-01-17T07:03:17.050Z,66.76
2023-01-17T07:05:43.756Z,66.48
2023-01-17T07:08:10.633Z,66.27
2023-01-17T07:10:37.298Z,66.14
2023-01-17T07:13:03.966Z,66.41
2023-01-17T07:15:30.712Z,66.43
2023-01-17T07:18:00.331Z,66.15
2023-01-17T07:20:27.078Z,66.03
2023-01-17T07:22:53.768Z,66.41
2023-01-17T07:25:20.518Z,66.31
2023-01-17T07:27:47.192Z,66.55
2023-01-17T07:30:14.329Z,66.44
2023-01-17T07:32:41.072Z,66.65
2023-01-17T07:35:08.004Z,66.48
2023-01-17T07:37:34.700Z,66.56
2023-01-17T07:40:03.076Z,66.75
2023-01-17T07:42:29.827Z,67.18
2023-01-17T07:44:56.484Z,67.51
2023-01-17T07:47:24.856Z,67.60
2023-01-17T07:49:51.573Z,68.23
2023-01-17T07:52:18.453Z,67.93
2023-01-17T07:54:45.176Z,67.93
2023-01-17T07:57:12.715Z,68.12
2023-01-17T07:59:39.509Z,68.05
2023-01-17T08:02:06.294Z,67.91
2023-01-17T08:04:35.382Z,67.83
2023-01-17T08:07:02.314Z,67.89
2023-01-17T08:09:31.052Z,67.41
2023-01-17T08:11:57.760Z,67.36
2023-01-17T08:14:25.045Z,67.20
2023-01-17T08:16:51.788Z,67.29
2023-01-17T08:19:18.889Z,67.19
2023-01-17T08:21:45.669Z,67.10
2023-01-17T08:24:13.905Z,66.78
2023-01-17T08:26:41.151Z,67.07
2023-01-17T08:29:08.001Z,66.67
2023-01-17T08:31:35.443Z,66.99
2023-01-17T08:34:03.080Z,67.00
2023-01-17T08:36:31.270Z,67.19
2023-01-17T08:38:58.909Z,67.53
2023-01-17T08:41:27.854Z,67.58
2023-01-17T08:43:56.583Z,67.76
2023-01-17T08:46:24.327Z,67.49
2023-01-17T08:49:02.895Z,67.53
2023-01-17T08:51:31.640Z,67.45
2023-01-17T08:53:59.146Z,67.21
2023-01-17T08:56:28.424Z,67.04
2023-01-17T08:58:55.125Z,66.66
2023-01-17T09:01:21.939Z,66.13
2023-01-17T09:03:49.898Z,66.02
2023-01-17T09:06:17.318Z,65.75
2023-01-17T09:08:47.065Z,65.81
2023-01-17T09:11:16.469Z,64.83
2023-01-17T09:13:43.592Z,63.82
2023-01-17T09:16:10.838Z,63.52
2023-01-17T09:18:37.729Z,64.39
2023-01-17T09:21:16.404Z,63.64
2023-01-17T09:23:43.828Z,64.28
2023-01-17T09:26:21.455Z,63.43
2023-01-17T09:28:49.007Z,62.91
2023-01-17T09:31:17.594Z,62.76
2023-01-17T09:33:44.737Z,63.15
2023-01-17T09:36:11.659Z,63.09
2023-01-17T09:38:40.136Z,63.16
2023-01-17T09:41:32.757Z,62.26
2023-01-17T09:44:28.647Z,62.86
2023-01-17T09:47:11.923Z,62.42
2023-01-17T09:49:43.466Z,62.78
2023-01-17T09:52:13.555Z,62.12
2023-01-17T09:54:46.588Z,62.81
2023-01-17T09:57:24.410Z,63.11
2023-01-17T10:00:28.474Z,63.39
2023-01-17T10:03:17.051Z,62.93
2023-01-17T10:05:58.674Z,62.87
2023-01-17T10:08:28.341Z,62.65
2023-01-17T10:11:17.808Z,62.77
2023-01-17T10:13:56.576Z,63.01
2023-01-17T10:16:42.039Z,62.85
2023-01-17T10:19:35.652Z,63.35
2023-01-17T10:22:31.154Z,62.48
2023-01-17T10:25:20.340Z,62.81
2023-01-17T10:28:05.073Z,61.11
2023-01-17T10:30:49.085Z,61.70
2023-01-17T10:33:20.807Z,61.16
2023-01-17T10:35:57.031Z,59.96
2023-01-17T10:38:36.582Z,59.18
2023-01-17T10:41:24.394Z,58.41
2023-01-17T10:44:15.711Z,57.72
2023-01-17T10:46:47.771Z,56.51
2023-01-17T10:49:18.571Z,56.51
2023-01-17T10:52:03.974Z,53.36
2023-01-17T10:54:43.296Z,54.66
2023-01-17T10:57:18.696Z,54.21
2023-01-17T10:59:45.536Z,55.50
2023-01-17T11:02:26.197Z,55.40
2023-01-17T11:04:55.728Z,55.95
2023-01-17T11:07:27.129Z,57.71
2023-01-17T11:09:57.596Z,53.38
2023-01-17T11:12:44.066Z,54.34
2023-01-17T11:15:10.704Z,54.97
2023-01-17T11:17:48.954Z,50.97
2023-01-17T11:20:22.851Z,52.41
2023-01-17T11:23:15.879Z,48.88
2023-01-17T11:26:11.262Z,43.33
2023-01-17T11:28:42.693Z,45.58
2023-01-17T11:31:16.728Z,45.82
2023-01-17T11:34:05.305Z,49.64
2023-01-17T11:36:32.726Z,48.66
2023-01-17T11:39:22.602Z,43.44
2023-01-17T11:41:49.478Z,45.12
2023-01-17T11:44:32.819Z,45.21
2023-01-17T11:47:11.589Z,49.27
2023-01-17T11:49:40.198Z,49.78
2023-01-17T11:52:27.274Z,47.10
2023-01-17T11:54:55.388Z,46.84
2023-01-17T11:57:26.734Z,49.35
2023-01-17T11:59:59.737Z,47.23
2023-01-17T12:02:31.993Z,49.33
2023-01-17T12:05:18.465Z,49.31
2023-01-17T12:08:06.196Z,49.56
2023-01-17T12:10:53.317Z,46.54
2023-01-17T12:14:01.519Z,47.82
2023-01-17T12:16:33.213Z,47.50
2023-01-17T12:19:49.012Z,46.58
2023-01-17T12:22:27.882Z,46.70
2023-01-17T12:25:03.691Z,46.17
2023-01-17T12:27:30.358Z,46.89
2023-01-17T12:30:09.017Z,47.97
2023-01-17T12:32:40.712Z,48.60
2023-01-17T12:35:19.548Z,47.86
2023-01-17T12:38:04.427Z,48.31
2023-01-17T12:40:49.774Z,47.10
2023-01-17T12:43:25.791Z,47.62
2023-01-17T12:45:54.699Z,48.25
2023-01-17T12:48:23.238Z,48.65
2023-01-17T12:50:57.299Z,49.20
2023-01-17T12:53:39.484Z,47.52
2023-01-17T12:56:24.972Z,48.85
2023-01-17T12:59:07.674Z,48.42
2023-01-17T13:01:44.520Z,49.28
2023-01-17T13:04:26.659Z,48.68
2023-01-17T13:06:59.657Z,49.29
2023-01-17T13:09:37.062Z,49.81
2023-01-17T13:12:09.983Z,50.51
2023-01-17T13:14:39.854Z,49.72
2023-01-17T13:17:37.798Z,49.96
2023-01-17T13:20:22.690Z,49.19
2023-01-17T13:22:51.639Z,50.08
2023-01-17T13:25:27.245Z,51.01
2023-01-17T13:28:05.237Z,51.03
2023-01-17T13:30:50.349Z,49.08
2023-01-17T13:33:48.531Z,50.00
2023-01-17T13:36:30.311Z,50.75
2023-01-17T13:39:17.730Z,50.00
2023-01-17T13:42:02.442Z,50.91
2023-01-17T13:44:32.156Z,51.86
2023-01-17T13:47:08.131Z,51.62
2023-01-17T13:49:42.671Z,51.66
2023-01-17T13:52:23.115Z,51.75
2023-01-17T13:54:58.342Z,51.50
2023-01-17T13:57:32.879Z,52.32
2023-01-17T14:00:36.069Z,52.27
2023-01-17T14:03:14.662Z,52.59
2023-01-17T14:05:41.391Z,52.65
2023-01-17T14:08:20.606Z,52.19
2023-01-17T14:11:03.955Z,52.54
2023-01-17T14:13:40.049Z,52.13
2023-01-17T14:16:21.999Z,53.04
2023-01-17T14:18:49.630Z,53.66
2023-01-17T14:21:23.963Z,53.65
2023-01-17T14:23:57.648Z,53.35
2023-01-17T14:26:32.350Z,53.30
2023-01-17T14:29:19.653Z,53.99
2023-01-17T14:31:47.158Z,54.17
2023-01-17T14:34:14.109Z,54.53
2023-01-17T14:36:40.825Z,54.79
2023-01-17T14:39:22.264Z,54.97
2023-01-17T14:41:49.072Z,54.77
2023-01-17T14:44:15.847Z,55.38
2023-01-17T14:46:47.959Z,55.54
2023-01-17T14:49:26.008Z,55.32
2023-01-17T14:52:00.232Z,56.04
2023-01-17T14:54:27.780Z,56.38
2023-01-17T14:57:29.631Z,56.37
2023-01-17T15:00:21.283Z,56.62
2023-01-17T15:02:48.607Z,56.79
2023-01-17T15:05:17.372Z,56.86
2023-01-17T15:07:46.830Z,57.11
2023-01-17T15:10:16.102Z,57.14
2023-01-17T15:12:46.692Z,57.31
2023-01-17T15:15:30.371Z,57.72
2023-01-17T15:18:25.479Z,57.79
2023-01-17T15:21:02.523Z,58.18
2023-01-17T15:23:37.136Z,58.27
2023-01-17T15:26:06.574Z,58.37
2023-01-17T15:28:37.116Z,58.44
2023-01-17T15:31:17.106Z,58.92
2023-01-17T15:33:47.107Z,59.06
2023-01-17T15:36:26.208Z,59.34
2023-01-17T15:39:00.232Z,59.39
2023-01-17T15:41:31.774Z,59.75
2023-01-17T15:43:58.906Z,59.44
2023-01-17T15:46:44.536Z,60.14
2023-01-17T15:49:23.155Z,60.17
2023-01-17T15:51:54.384Z,60.06
2023-01-17T15:54:34.674Z,60.61
2023-01-17T15:57:27.238Z,60.99
2023-01-17T16:00:32.667Z,60.62
2023-01-17T16:02:59.769Z,60.67
2023-01-17T16:05:31.101Z,60.71
2023-01-17T16:08:04.398Z,61.55
2023-01-17T16:10:37.214Z,61.84
2023-01-17T16:13:05.954Z,61.92
2023-01-17T16:15:35.347Z,61.77
2023-01-17T16:18:11.848Z,61.91
2023-01-17T16:20:44.363Z,62.39
2023-01-17T16:23:11.150Z,62.27
2023-01-17T16:25:38.497Z,63.26
2023-01-17T16:28:06.225Z,63.46
2023-01-17T16:30:33.628Z,63.10
2023-01-17T16:33:00.601Z,62.92
2023-01-17T16:35:31.285Z,63.48
2023-01-17T16:37:59.136Z,63.77
2023-01-17T16:40:28.566Z,64.22
2023-01-17T16:42:56.293Z,64.51
2023-01-17T16:45:25.987Z,64.89
2023-01-17T16:47:54.345Z,64.74
2023-01-17T16:50:25.115Z,65.01
2023-01-17T16:52:53.261Z,64.81
2023-01-17T16:55:25.290Z,64.93
2023-01-17T16:57:54.233Z,65.28
2023-01-17T17:00:22.721Z,65.25
2023-01-17T17:02:50.719Z,65.32
2023-01-17T17:05:18.148Z,65.66
2023-01-17T17:07:45.998Z,65.92
2023-01-17T17:10:14.673Z,66.68
2023-01-17T17:12:41.486Z,67.27
2023-01-17T17:15:09.005Z,67.67
2023-01-17T17:17:37.096Z,69.72
2023-01-17T17:20:05.096Z,70.70
2023-01-17T17:22:32.589Z,69.95
2023-01-17T17:24:59.302Z,68.83
2023-01-17T17:27:28.695Z,68.15
2023-01-17T17:29:55.609Z,67.91
2023-01-17T17:32:22.491Z,68.82
2023-01-17T17:34:51.085Z,68.00
2023-01-17T17:37:17.999Z,69.40
2023-01-17T17:39:45.370Z,69.17
2023-01-17T17:42:12.201Z,69.50
2023-01-17T17:44:38.878Z,70.40
2023-01-17T17:47:08.340Z,70.46
2023-01-17T17:49:35.126Z,69.86
2023-01-17T17:52:06.160Z,70.58
2023-01-17T17:54:33.024Z,70.52
2023-01-17T17:56:59.735Z,71.51
2023-01-17T17:59:26.942Z,70.90
2023-01-17T18:01:53.656Z,70.61
2023-01-17T18:04:21.637Z,70.92
2023-01-17T18:06:48.391Z,72.34
2023-01-17T18:09:16.645Z,72.61
2023-01-17T18:11:43.904Z,71.16
2023-01-17T18:14:13.787Z,70.88
2023-01-17T18:16:43.750Z,71.47
2023-01-17T18:19:17.300Z,73.91
2023-01-17T18:21:44.477Z,74.11
2023-01-17T18:24:13.518Z,72.25
2023-01-17T18:27:06.561Z,73.18
2023-01-17T18:29:33.312Z,72.19
2023-01-17T18:31:59.975Z,71.95
2023-01-17T18:34:29.430Z,71.98
2023-01-17T18:36:57.050Z,74.54
2023-01-17T18:39:26.500Z,75.12
2023-01-17T18:41:54.032Z,73.50
2023-01-17T18:44:22.142Z,74.86
2023-01-17T18:46:50.373Z,74.33
2023-01-17T18:49:19.301Z,73.38
2023-01-17T18:51:50.582Z,72.61
2023-01-17T18:54:18.463Z,72.74
2023-01-17T18:56:45.281Z,72.42
2023-01-17T18:59:14.105Z,72.80
2023-01-17T19:01:44.790Z,72.44
2023-01-17T19:04:13.586Z,71.92
2023-01-17T19:06:43.034Z,72.97
2023-01-17T19:09:12.404Z,73.03
2023-01-17T19:11:39.491Z,72.48
2023-01-17T19:14:07.218Z,72.61
2023-01-17T19:16:39.215Z,72.42
2023-01-17T19:19:08.443Z,73.66
2023-01-17T19:21:35.559Z,73.13
2023-01-17T19:24:02.876Z,72.64
2023-01-17T19:26:30.057Z,71.79
2023-01-17T19:29:03.782Z,71.89
2023-01-17T19:31:32.088Z,72.31
2023-01-17T19:33:59.729Z,71.69
2023-01-17T19:36:33.853Z,71.80
2023-01-17T19:39:05.719Z,72.59
2023-01-17T19:41:35.175Z,72.13
2023-01-17T19:44:08.052Z,72.78
2023-01-17T19:46:35.452Z,72.93
2023-01-17T19:49:03.644Z,73.23
2023-01-17T19:51:30.457Z,72.81
2023-01-17T19:53:59.882Z,72.02
2023-01-17T19:56:27.879Z,71.77
2023-01-17T19:58:54.767Z,72.10
2023-01-17T20:01:28.801Z,72.55
2023-01-17T20:03:58.046Z,72.58
2023-01-17T20:06:29.054Z,72.28
2023-01-17T20:08:56.207Z,72.13
2023-01-17T20:11:24.867Z,72.27
2023-01-17T20:13:54.304Z,72.20
2023-01-17T20:16:21.981Z,72.78
2023-01-17T20:18:49.530Z,73.01
2023-01-17T20:21:17.346Z,73.00
2023-01-17T20:23:47.005Z,72.59
2023-01-17T20:26:29.696Z,73.09
2023-01-17T20:28:56.705Z,72.60
2023-01-17T20:31:25.769Z,72.62
2023-01-17T20:33:54.591Z,72.71
2023-01-17T20:36:26.873Z,72.54
2023-01-17T20:38:54.522Z,72.75
2023-01-17T20:41:28.572Z,72.43
2023-01-17T20:43:57.765Z,72.37
2023-01-17T20:46:31.405Z,72.06
2023-01-17T20:48:58.364Z,72.13
2023-01-17T20:51:27.019Z,72.15
2023-01-17T20:53:56.660Z,71.71
2023-01-17T20:56:24.429Z,71.98
2023-01-17T20:58:52.414Z,71.36
2023-01-17T21:01:21.179Z,71.46
2023-01-17T21:03:51.587Z,71.34
2023-01-17T21:06:19.599Z,71.01
2023-01-17T21:08:47.451Z,70.93
2023-01-17T21:11:17.211Z,70.91
2023-01-17T21:13:44.352Z,70.95
2023-01-17T21:16:14.246Z,70.89
2023-01-17T21:18:41.584Z,70.92
2023-01-17T21:21:13.968Z,70.84
2023-01-17T21:23:42.479Z,70.74
2023-01-17T21:26:12.143Z,70.81
2023-01-17T21:28:40.965Z,70.69
2023-01-17T21:31:23.159Z,71.15
2023-01-17T21:33:59.076Z,71.01
2023-01-17T21:36:29.336Z,71.13
2023-01-17T21:38:57.871Z,71.21
2023-01-17T21:41:33.562Z,71.11
2023-01-17T21:44:04.928Z,70.74
2023-01-17T21:46:31.861Z,70.85
2023-01-17T21:48:58.615Z,70.98
2023-01-17T21:51:45.582Z,70.77
2023-01-17T21:54:12.409Z,70.53
2023-01-17T21:56:57.814Z,70.44
2023-01-17T21:59:24.508Z,70.82
2023-01-17T22:01:51.278Z,70.84
2023-01-17T22:04:17.999Z,70.84
2023-01-17T22:06:44.655Z,70.52
2023-01-17T22:09:11.427Z,70.65
2023-01-17T22:11:38.128Z,70.91
2023-01-17T22:14:05.285Z,70.88
2023-01-17T22:16:32.321Z,70.93
2023-01-17T22:18:59.323Z,70.48
2023-01-17T22:21:28.422Z,70.50
2023-01-17T22:23:58.746Z,70.53
2023-01-17T22:26:30.274Z,70.47
2023-01-17T22:29:00.774Z,70.53
2023-01-17T22:31:28.225Z,70.28
2023-01-17T22:34:02.510Z,70.36
2023-01-17T22:36:31.955Z,70.09
2023-01-17T22:38:58.772Z,70.21
2023-01-17T22:41:31.320Z,70.08
2023-01-17T22:43:59.903Z,69.92
2023-01-17T22:46:30.307Z,70.05
2023-01-17T22:48:57.440Z,69.77
2023-01-17T22:51:25.307Z,69.95
2023-01-17T22:53:57.642Z,69.91
2023-01-17T22:56:30.107Z,69.93
2023-01-17T22:58:58.982Z,69.72
2023-01-17T23:01:31.364Z,69.65
2023-01-17T23:04:03.740Z,69.76
2023-01-17T23:06:33.237Z,69.52
2023-01-17T23:09:03.402Z,69.59
2023-01-17T23:11:46.200Z,69.78
2023-01-17T23:14:30.624Z,69.45
2023-01-17T23:17:21.159Z,69.67
2023-01-17T23:19:51.066Z,69.88
2023-01-17T23:22:27.117Z,69.82
2023-01-17T23:25:12.158Z,70.05
2023-01-17T23:27:59.938Z,70.42
2023-01-17T23:30:37.471Z,70.57
2023-01-17T23:33:10.207Z,70.45
2023-01-17T23:35:42.054Z,70.38
2023-01-17T23:38:26.377Z,70.83
2023-01-17T23:41:12.447Z,70.55
2023-01-17T23:43:39.149Z,70.56
2023-01-17T23:46:05.922Z,70.91
2023-01-17T23:48:32.599Z,71.58
2023-01-17T23:51:09.670Z,71.62
2023-01-17T23:53:38.001Z,71.62
2023-01-17T23:56:18.494Z,71.61
2023-01-17T23:58:45.419Z,71.73
